Observation data for Jayton on 04/16/2021      Previous  Date  Next       Current Mesonet Observations  Soil Data  Daily Summary Page  Observations in Plain Language
KJTS 160500Z 09008KT 11/10 A2989 RMK A01 T01070102  RH  100%=      5-min Rain = 0
KJTS 160505Z 08009KT 11/10 A2989 RMK A01 T01070102  RH  100%=      5-min Rain = 0
KJTS 160510Z 09009KT 11/10 A2988 RMK A01 T01070102  RH  100%=      5-min Rain = 0
KJTS 160515Z 08008KT 11/10 A2988 RMK A01 T01070102  RH  100%=      5-min Rain = 0
KJTS 160520Z 08009KT 11/10 A2988 RMK A01 T01070102  RH  100%=      5-min Rain = 0
KJTS 160525Z 08009KT 11/10 A2988 RMK A01 T01070102  RH  100%=      5-min Rain = 0
KJTS 160530Z 08009KT 11/10 A2988 RMK A01 T01070102  RH  100%=      5-min Rain = 0
KJTS 160535Z 08009KT 11/10 A2988 RMK A01 T01070102  RH  100%=      5-min Rain = 0.01
KJTS 160540Z 08008G13KT 11/10 A2988 RMK A01 T01070102  RH  100%=      5-min Rain = 0
KJTS 160545Z 08009KT 11/10 A2988 RMK A01 T01070102  RH  100%=      5-min Rain = 0
KJTS 160550Z 07009KT 11/10 A2988 RMK A01 T01070102  RH  100%=      5-min Rain = 0
KJTS 160555Z 07008KT 11/10 A2988 RMK A01 T01070102  RH  100%=      5-min Rain = 0
KJTS 160600Z 08009KT 11/10 A2988 RMK A01 T01070102  RH  100%=      5-min Rain = 0
KJTS 160605Z 08007KT 11/10 A2988 RMK A01 T01070103  RH  100%=      5-min Rain = 0
KJTS 160610Z 08008KT 11/10 A2988 RMK A01 T01080103  RH  100%=      5-min Rain = 0
KJTS 160615Z 08007KT 11/10 A2988 RMK A01 T01080103  RH  100%=      5-min Rain = 0
KJTS 160620Z 08008KT 11/10 A2987 RMK A01 T01080103  RH  100%=      5-min Rain = 0.01
KJTS 160625Z 09008KT 11/10 A2987 RMK A01 T01080103  RH  100%=      5-min Rain = 0
KJTS 160630Z 09008KT 11/10 A2987 RMK A01 T01080103  RH  100%=      5-min Rain = 0
KJTS 160635Z 09007KT 11/10 A2987 RMK A01 T01080103  RH  100%=      5-min Rain = 0
KJTS 160640Z 09007KT 11/10 A2987 RMK A01 T01080103  RH  100%=      5-min Rain = 0
KJTS 160645Z 09008KT 11/10 A2987 RMK A01 T01080103  RH  100%=      5-min Rain = 0
KJTS 160650Z 09008KT 11/10 A2987 RMK A01 T01080103  RH  100%=      5-min Rain = 0
KJTS 160655Z 09008KT 11/10 A2986 RMK A01 T01080103  RH  100%=      5-min Rain = 0
KJTS 160700Z 09007KT 11/10 A2986 RMK A01 T01080103  RH  100%=      5-min Rain = 0
KJTS 160705Z 08007KT 11/10 A2986 RMK A01 T01080103  RH  100%=      5-min Rain = 0
KJTS 160710Z 08006KT 11/10 A2986 RMK A01 T01080103  RH  100%=      5-min Rain = 0
KJTS 160715Z 08006KT 11/10 A2986 RMK A01 T01080103  RH  100%=      5-min Rain = 0
KJTS 160720Z 09006KT 11/10 A2986 RMK A01 T01080104  RH  100%=      5-min Rain = 0
KJTS 160725Z 08006KT 11/10 A2986 RMK A01 T01090104  RH  100%=      5-min Rain = 0
KJTS 160730Z 08006KT 11/10 A2986 RMK A01 T01090104  RH  100%=      5-min Rain = 0
KJTS 160735Z 09005KT 11/10 A2986 RMK A01 T01090104  RH  100%=      5-min Rain = 0
KJTS 160740Z 09006KT 11/10 A2985 RMK A01 T01090104  RH  100%=      5-min Rain = 0
KJTS 160745Z 09007KT 11/10 A2984 RMK A01 T01090104  RH  100%=      5-min Rain = 0
KJTS 160750Z 09008KT 11/10 A2984 RMK A01 T01090104  RH  100%=      5-min Rain = 0
KJTS 160755Z 09008KT 11/10 A2984 RMK A01 T01090104  RH  100%=      5-min Rain = 0
KJTS 160800Z 09008KT 11/10 A2983 RMK A01 T01090104  RH  100%=      5-min Rain = 0
KJTS 160805Z 10007KT 11/10 A2983 RMK A01 T01090104  RH  100%=      5-min Rain = 0
KJTS 160810Z 10007KT 11/10 A2982 RMK A01 T01090104  RH  100%=      5-min Rain = 0
KJTS 160815Z 10008KT 11/10 A2982 RMK A01 T01090104  RH  100%=      5-min Rain = 0
KJTS 160820Z 11007KT 11/10 A2982 RMK A01 T01090104  RH  100%=      5-min Rain = 0
KJTS 160825Z 11007KT 11/10 A2982 RMK A01 T01090104  RH  100%=      5-min Rain = 0
KJTS 160830Z 11007KT 11/10 A2982 RMK A01 T01090104  RH  100%=      5-min Rain = 0
KJTS 160835Z 10006KT 11/10 A2982 RMK A01 T01090104  RH  100%=      5-min Rain = 0
KJTS 160840Z 10007KT 11/11 A2982 RMK A01 T01100105  RH  100%=      5-min Rain = 0
KJTS 160845Z 10007KT 11/11 A2982 RMK A01 T01100105  RH  100%=      5-min Rain = 0
KJTS 160850Z 11007KT 11/11 A2982 RMK A01 T01100105  RH  100%=      5-min Rain = 0
KJTS 160855Z 11006KT 11/11 A2982 RMK A01 T01100105  RH  100%=      5-min Rain = 0
KJTS 160900Z 11005KT 11/11 A2982 RMK A01 T01100105  RH  100%=      5-min Rain = 0
KJTS 160905Z 10006KT 11/11 A2982 RMK A01 T01100105  RH  100%=      5-min Rain = 0
KJTS 160910Z 09005KT 11/11 A2982 RMK A01 T01100105  RH  100%=      5-min Rain = 0
KJTS 160915Z 09004KT 11/11 A2982 RMK A01 T01100105  RH  100%=      5-min Rain = 0
KJTS 160920Z 10003KT 11/11 A2982 RMK A01 T01110106  RH  100%=      5-min Rain = 0
KJTS 160925Z 10004KT 11/11 A2982 RMK A01 T01110106  RH  100%=      5-min Rain = 0
KJTS 160930Z 09004KT 11/11 A2982 RMK A01 T01110106  RH  100%=      5-min Rain = 0
KJTS 160935Z 07003KT 11/11 A2982 RMK A01 T01110106  RH  100%=      5-min Rain = 0
KJTS 160940Z 05004KT 11/11 A2982 RMK A01 T01110106  RH  100%=      5-min Rain = 0
KJTS 160945Z 01004KT 11/11 A2983 RMK A01 T01110106  RH  100%=      5-min Rain = 0
KJTS 160950Z 35011KT 11/11 A2985 RMK A01 T01120106  RH  100%=      5-min Rain = 0
KJTS 160955Z 35014G21KT 11/11 A2986 RMK A01 T01100105  RH  100%=      5-min Rain = 0.01
KJTS 161000Z 36011G18KT 11/10 A2986 RMK A01 T01050100  RH  100%=      5-min Rain = 0.02
KJTS 161005Z 01010KT 10/10 A2985 RMK A01 T01040099  RH  100%=      5-min Rain = 0
KJTS 161010Z 01008KT 10/10 A2985 RMK A01 T01030098  RH  100%=      5-min Rain = 0.01
KJTS 161015Z 01008KT 10/10 A2985 RMK A01 T01020097  RH  100%=      5-min Rain = 0.01
KJTS 161020Z 01008KT 10/10 A2984 RMK A01 T01010097  RH  100%=      5-min Rain = 0
KJTS 161025Z 01011KT 10/10 A2985 RMK A01 T01010096  RH  100%=      5-min Rain = 0
KJTS 161030Z 36010KT 10/10 A2985 RMK A01 T01000095  RH  100%=      5-min Rain = 0
KJTS 161035Z 00011KT 10/10 A2985 RMK A01 T00990095  RH  100%=      5-min Rain = 0
KJTS 161040Z 01010G15KT 10/09 A2985 RMK A01 T00990094  RH  100%=      5-min Rain = 0
KJTS 161045Z 00012KT 10/09 A2985 RMK A01 T00980093  RH  100%=      5-min Rain = 0
KJTS 161050Z 00010KT 10/09 A2985 RMK A01 T00980093  RH  100%=      5-min Rain = 0
KJTS 161055Z 00011KT 10/09 A2986 RMK A01 T00970093  RH  100%=      5-min Rain = 0
KJTS 161100Z 00011KT 10/09 A2986 RMK A01 T00970093  RH  100%=      5-min Rain = 0
KJTS 161105Z 00012KT 10/09 A2986 RMK A01 T00970092  RH  100%=      5-min Rain = 0
KJTS 161110Z 00011G16KT 10/09 A2986 RMK A01 T00970092  RH  100%=      5-min Rain = 0
KJTS 161115Z 01011KT 10/09 A2986 RMK A01 T00960092  RH  100%=      5-min Rain = 0
KJTS 161120Z 00011KT 10/09 A2986 RMK A01 T00960092  RH  100%=      5-min Rain = 0
KJTS 161125Z 00011KT 10/09 A2986 RMK A01 T00950091  RH  100%=      5-min Rain = 0
KJTS 161130Z 01010KT 10/09 A2986 RMK A01 T00950091  RH  100%=      5-min Rain = 0
KJTS 161135Z 01009KT 10/09 A2986 RMK A01 T00950091  RH  100%=      5-min Rain = 0
KJTS 161140Z 01012G17KT 10/09 A2987 RMK A01 T00950090  RH  100%=      5-min Rain = 0
KJTS 161145Z 00012KT 09/09 A2986 RMK A01 T00940090  RH  100%=      5-min Rain = 0
KJTS 161150Z 01013KT 09/09 A2986 RMK A01 T00940089  RH  100%=      5-min Rain = 0
KJTS 161155Z 01011KT 09/09 A2987 RMK A01 T00930089  RH  100%=      5-min Rain = 0
KJTS 161200Z 01011G18KT 09/09 A2987 RMK A01 T00930089  RH  100%=      5-min Rain = 0
KJTS 161205Z 01012KT 09/09 A2987 RMK A01 T00920088  RH  100%=      5-min Rain = 0
KJTS 161210Z 00012KT 09/09 A2987 RMK A01 T00910086  RH  100%=      5-min Rain = 0
KJTS 161215Z 01011G17KT 09/09 A2987 RMK A01 T00900086  RH  100%=      5-min Rain = 0
KJTS 161220Z 00012KT 09/09 A2987 RMK A01 T00900085  RH  100%=      5-min Rain = 0
KJTS 161225Z 01009KT 09/09 A2987 RMK A01 T00900085  RH  100%=      5-min Rain = 0
KJTS 161230Z 00010G15KT 09/09 A2987 RMK A01 T00890085  RH  100%=      5-min Rain = 0
KJTS 161235Z 00009KT 09/08 A2987 RMK A01 T00890084  RH  100%=      5-min Rain = 0
KJTS 161240Z 01009G14KT 09/08 A2987 RMK A01 T00890084  RH  100%=      5-min Rain = 0
KJTS 161245Z 01010KT 09/08 A2987 RMK A01 T00880084  RH  100%=      5-min Rain = 0
KJTS 161250Z 01009KT 09/08 A2987 RMK A01 T00880084  RH  100%=      5-min Rain = 0
KJTS 161255Z 01012KT 09/08 A2988 RMK A01 T00880084  RH  100%=      5-min Rain = 0
KJTS 161300Z 01009KT 09/08 A2988 RMK A01 T00880084  RH  100%=      5-min Rain = 0
KJTS 161305Z 01009KT 09/09 A2988 RMK A01 T00890085  RH  100%=      5-min Rain = 0
KJTS 161310Z 01010KT 09/08 A2988 RMK A01 T00880084  RH  100%=      5-min Rain = 0
KJTS 161315Z 02007KT 09/09 A2988 RMK A01 T00890085  RH  100%=      5-min Rain = 0
KJTS 161320Z 01009KT 09/09 A2988 RMK A01 T00890085  RH  100%=      5-min Rain = 0
KJTS 161325Z 01009KT 09/09 A2988 RMK A01 T00890085  RH  100%=      5-min Rain = 0
KJTS 161330Z 01010KT 09/09 A2989 RMK A01 T00890085  RH  100%=      5-min Rain = 0
KJTS 161335Z 01011KT 09/09 A2989 RMK A01 T00890085  RH  100%=      5-min Rain = 0
KJTS 161340Z 01009KT 09/09 A2989 RMK A01 T00900085  RH  100%=      5-min Rain = 0
KJTS 161345Z 02008KT 09/09 A2989 RMK A01 T00900085  RH  099%=      5-min Rain = 0
KJTS 161350Z 01009KT 09/09 A2989 RMK A01 T00900085  RH  099%=      5-min Rain = 0
KJTS 161355Z 01009KT 09/09 A2989 RMK A01 T00900085  RH  099%=      5-min Rain = 0
KJTS 161400Z 01009KT 09/08 A2989 RMK A01 T00900084  RH  099%=      5-min Rain = 0
KJTS 161405Z 01007KT 09/09 A2989 RMK A01 T00910085  RH  099%=      5-min Rain = 0
KJTS 161410Z 01008KT 09/09 A2989 RMK A01 T00910085  RH  099%=      5-min Rain = 0
KJTS 161415Z 01006KT 09/09 A2989 RMK A01 T00920086  RH  099%=      5-min Rain = 0
KJTS 161420Z 01006KT 09/09 A2989 RMK A01 T00920086  RH  099%=      5-min Rain = 0
KJTS 161425Z 01006KT 09/09 A299 RMK A01 T00930086  RH  099%=      5-min Rain = 0
KJTS 161430Z 36006KT 09/09 A299 RMK A01 T00940087  RH  099%=      5-min Rain = 0
KJTS 161435Z 00006KT 09/09 A299 RMK A01 T00940088  RH  099%=      5-min Rain = 0
KJTS 161440Z 01006KT 10/09 A2991 RMK A01 T00950088  RH  098%=      5-min Rain = 0
KJTS 161445Z 01006KT 10/09 A2991 RMK A01 T00960088  RH  097%=      5-min Rain = 0
KJTS 161450Z 02004KT 10/09 A2991 RMK A01 T00980089  RH  097%=      5-min Rain = 0
KJTS 161455Z 02006KT 10/09 A2991 RMK A01 T00970088  RH  097%=      5-min Rain = 0
KJTS 161500Z 36006KT 10/09 A2991 RMK A01 T00980088  RH  096%=      5-min Rain = 0
KJTS 161505Z 36008KT 10/09 A2992 RMK A01 T00980087  RH  096%=      5-min Rain = 0
KJTS 161510Z 36008KT 10/09 A2992 RMK A01 T00980087  RH  096%=      5-min Rain = 0
KJTS 161515Z 36007KT 10/09 A2991 RMK A01 T00990088  RH  096%=      5-min Rain = 0
KJTS 161520Z 01009KT 10/09 A2991 RMK A01 T00990088  RH  096%=      5-min Rain = 0
KJTS 161525Z 36009KT 10/09 A2991 RMK A01 T00990088  RH  096%=      5-min Rain = 0
KJTS 161530Z 36010KT 10/09 A2992 RMK A01 T00990088  RH  096%=      5-min Rain = 0
KJTS 161535Z 00009KT 10/09 A2991 RMK A01 T01000089  RH  096%=      5-min Rain = 0
KJTS 161540Z 01010KT 10/09 A2991 RMK A01 T01000089  RH  095%=      5-min Rain = 0
KJTS 161545Z 01009G14KT 10/09 A2991 RMK A01 T01010090  RH  096%=      5-min Rain = 0
KJTS 161550Z 00011KT 10/09 A2992 RMK A01 T00990087  RH  095%=      5-min Rain = 0
KJTS 161555Z 00010KT 10/09 A2992 RMK A01 T00990087  RH  095%=      5-min Rain = 0
KJTS 161600Z 00011KT 10/09 A2992 RMK A01 T00990087  RH  095%=      5-min Rain = 0
KJTS 161605Z 00010KT 10/09 A2993 RMK A01 T00980086  RH  095%=      5-min Rain = 0
KJTS 161610Z 01011KT 10/09 A2993 RMK A01 T01000087  RH  095%=      5-min Rain = 0
KJTS 161615Z 36011KT 10/09 A2993 RMK A01 T01000086  RH  094%=      5-min Rain = 0
KJTS 161620Z 36012KT 10/09 A2993 RMK A01 T00990085  RH  094%=      5-min Rain = 0
KJTS 161625Z 36013KT 10/09 A2993 RMK A01 T00990086  RH  094%=      5-min Rain = 0
KJTS 161630Z 35013KT 10/08 A2993 RMK A01 T00980083  RH  093%=      5-min Rain = 0
KJTS 161635Z 36012KT 10/08 A2993 RMK A01 T00980083  RH  093%=      5-min Rain = 0
KJTS 161640Z 00012KT 10/08 A2993 RMK A01 T00990083  RH  093%=      5-min Rain = 0
KJTS 161645Z 36012KT 10/09 A2994 RMK A01 T01010085  RH  093%=      5-min Rain = 0
KJTS 161650Z 36010KT 10/09 A2994 RMK A01 T01010085  RH  093%=      5-min Rain = 0
KJTS 161655Z 36011KT 10/09 A2993 RMK A01 T01010086  RH  093%=      5-min Rain = 0
KJTS 161700Z 36011KT 10/08 A2994 RMK A01 T01000084  RH  092%=      5-min Rain = 0
KJTS 161705Z 36012KT 10/08 A2994 RMK A01 T01010084  RH  092%=      5-min Rain = 0
KJTS 161710Z 35012KT 10/09 A2994 RMK A01 T01020085  RH  092%=      5-min Rain = 0
KJTS 161715Z 35013KT 10/09 A2994 RMK A01 T01020085  RH  092%=      5-min Rain = 0
KJTS 161720Z 36013KT 10/08 A2994 RMK A01 T01020083  RH  091%=      5-min Rain = 0
KJTS 161725Z 36012KT 10/08 A2994 RMK A01 T01020083  RH  091%=      5-min Rain = 0
KJTS 161730Z 00010G16KT 10/08 A2994 RMK A01 T01010082  RH  091%=      5-min Rain = 0
KJTS 161735Z 00011KT 10/08 A2994 RMK A01 T01010083  RH  091%=      5-min Rain = 0
KJTS 161740Z 00011KT 10/08 A2994 RMK A01 T01010082  RH  091%=      5-min Rain = 0
KJTS 161745Z 00013KT 10/08 A2994 RMK A01 T01010081  RH  090%=      5-min Rain = 0
KJTS 161750Z 01012KT 10/08 A2994 RMK A01 T01010082  RH  090%=      5-min Rain = 0
KJTS 161755Z 01013KT 10/08 A2994 RMK A01 T01000080  RH  090%=      5-min Rain = 0
KJTS 161800Z 01012G17KT 10/08 A2994 RMK A01 T01010081  RH  090%=      5-min Rain = 0
KJTS 161805Z 00014KT 10/08 A2994 RMK A01 T01000080  RH  090%=      5-min Rain = 0
KJTS 161810Z 01012KT 10/08 A2995 RMK A01 T01010081  RH  090%=      5-min Rain = 0
KJTS 161815Z 35013KT 10/08 A2995 RMK A01 T01020082  RH  090%=      5-min Rain = 0
KJTS 161820Z 35013G19KT 10/08 A2995 RMK A01 T01040081  RH  088%=      5-min Rain = 0
KJTS 161825Z 36015KT 10/08 A2995 RMK A01 T01040080  RH  088%=      5-min Rain = 0
KJTS 161830Z 01013KT 10/08 A2995 RMK A01 T01040079  RH  087%=      5-min Rain = 0
KJTS 161835Z 01012G18KT 10/08 A2995 RMK A01 T01010078  RH  088%=      5-min Rain = 0
KJTS 161840Z 00016G22KT 10/08 A2995 RMK A01 T01010077  RH  087%=      5-min Rain = 0
KJTS 161845Z 36016G21KT 10/08 A2996 RMK A01 T01020077  RH  087%=      5-min Rain = 0
KJTS 161850Z 36014G20KT 10/08 A2995 RMK A01 T01030077  RH  086%=      5-min Rain = 0
KJTS 161855Z 00016KT 10/08 A2995 RMK A01 T01020076  RH  086%=      5-min Rain = 0
KJTS 161900Z 00015G20KT 10/08 A2995 RMK A01 T01020076  RH  086%=      5-min Rain = 0
KJTS 161905Z 00014G21KT 10/08 A2996 RMK A01 T01030077  RH  086%=      5-min Rain = 0
KJTS 161910Z 36012G17KT 11/08 A2996 RMK A01 T01070079  RH  085%=      5-min Rain = 0
KJTS 161915Z 35013G18KT 11/08 A2996 RMK A01 T01080078  RH  084%=      5-min Rain = 0
KJTS 161920Z 35014G19KT 11/08 A2997 RMK A01 T01070076  RH  083%=      5-min Rain = 0
KJTS 161925Z 36013G18KT 11/08 A2997 RMK A01 T01080076  RH  083%=      5-min Rain = 0
KJTS 161930Z 36013KT 11/08 A2996 RMK A01 T01090076  RH  082%=      5-min Rain = 0
KJTS 161935Z 35011KT 11/08 A2997 RMK A01 T01100077  RH  082%=      5-min Rain = 0
KJTS 161940Z 35012KT 11/08 A2997 RMK A01 T01110077  RH  082%=      5-min Rain = 0
KJTS 161945Z 36010KT 11/08 A2997 RMK A01 T01120078  RH  082%=      5-min Rain = 0
KJTS 161950Z 35011KT 11/08 A2997 RMK A01 T01130079  RH  082%=      5-min Rain = 0
KJTS 161955Z 35012G17KT 11/08 A2996 RMK A01 T01140078  RH  081%=      5-min Rain = 0
KJTS 162000Z 36012G17KT 12/08 A2996 RMK A01 T01150077  RH  079%=      5-min Rain = 0
KJTS 162005Z 36012G18KT 12/08 A2996 RMK A01 T01150075  RH  079%=      5-min Rain = 0
KJTS 162010Z 00011G16KT 12/08 A2996 RMK A01 T01150076  RH  079%=      5-min Rain = 0
KJTS 162015Z 36013G18KT 12/08 A2996 RMK A01 T01150076  RH  079%=      5-min Rain = 0
KJTS 162020Z 36014KT 12/08 A2996 RMK A01 T01160076  RH  079%=      5-min Rain = 0
KJTS 162025Z 00012G18KT 12/08 A2996 RMK A01 T01160077  RH  079%=      5-min Rain = 0
KJTS 162030Z 01013G19KT 12/08 A2996 RMK A01 T01160075  RH  078%=      5-min Rain = 0
KJTS 162035Z 01013G18KT 12/08 A2996 RMK A01 T01150075  RH  079%=      5-min Rain = 0
KJTS 162040Z 36012KT 12/08 A2996 RMK A01 T01150076  RH  079%=      5-min Rain = 0
KJTS 162045Z 35013KT 12/08 A2996 RMK A01 T01160075  RH  078%=      5-min Rain = 0
KJTS 162050Z 36013KT 12/08 A2996 RMK A01 T01160075  RH  078%=      5-min Rain = 0
KJTS 162055Z 35015G21KT 12/07 A2996 RMK A01 T01200074  RH  076%=      5-min Rain = 0
KJTS 162100Z 35015KT 12/07 A2996 RMK A01 T01210071  RH  073%=      5-min Rain = 0
KJTS 162105Z 35015KT 12/07 A2996 RMK A01 T01210071  RH  073%=      5-min Rain = 0
KJTS 162110Z 36013G18KT 12/07 A2996 RMK A01 T01200071  RH  074%=      5-min Rain = 0
KJTS 162115Z 35014G19KT 12/07 A2996 RMK A01 T01200070  RH  073%=      5-min Rain = 0
KJTS 162120Z 34013KT 12/07 A2996 RMK A01 T01220070  RH  072%=      5-min Rain = 0
KJTS 162125Z 00015KT 12/07 A2996 RMK A01 T01230069  RH  071%=      5-min Rain = 0
KJTS 162130Z 00016G22KT 12/07 A2996 RMK A01 T01240068  RH  070%=      5-min Rain = 0
KJTS 162135Z 36014G20KT 12/07 A2996 RMK A01 T01240067  RH  070%=      5-min Rain = 0
KJTS 162140Z 36014G19KT 13/07 A2996 RMK A01 T01250069  RH  070%=      5-min Rain = 0
KJTS 162145Z 00012KT 13/07 A2997 RMK A01 T01280070  RH  069%=      5-min Rain = 0
KJTS 162150Z 00014KT 13/07 A2997 RMK A01 T01280067  RH  068%=      5-min Rain = 0
KJTS 162155Z 00013KT 13/07 A2997 RMK A01 T01280068  RH  069%=      5-min Rain = 0
KJTS 162200Z 01013G18KT 13/07 A2997 RMK A01 T01290069  RH  068%=      5-min Rain = 0
KJTS 162205Z 36014KT 13/07 A2997 RMK A01 T01300067  RH  067%=      5-min Rain = 0
KJTS 162210Z 00015KT 13/07 A2996 RMK A01 T01310066  RH  066%=      5-min Rain = 0
KJTS 162215Z 36015G22KT 13/07 A2996 RMK A01 T01330067  RH  066%=      5-min Rain = 0
KJTS 162220Z 35016KT 13/07 A2996 RMK A01 T01340067  RH  065%=      5-min Rain = 0
KJTS 162225Z 35014G19KT 14/07 A2997 RMK A01 T01350066  RH  065%=      5-min Rain = 0
KJTS 162230Z 36015G20KT 14/07 A2997 RMK A01 T01360065  RH  064%=      5-min Rain = 0
KJTS 162235Z 00015G23KT 14/07 A2997 RMK A01 T01350065  RH  064%=      5-min Rain = 0
KJTS 162240Z 00015G20KT 13/06 A2997 RMK A01 T01340063  RH  064%=      5-min Rain = 0
KJTS 162245Z 01013G18KT 14/07 A2997 RMK A01 T01380066  RH  063%=      5-min Rain = 0
KJTS 162250Z 01012G20KT 14/07 A2997 RMK A01 T01420066  RH  062%=      5-min Rain = 0
KJTS 162255Z 01013G19KT 14/07 A2997 RMK A01 T01390066  RH  063%=      5-min Rain = 0
KJTS 162300Z 01013G18KT 14/06 A2997 RMK A01 T01360064  RH  064%=      5-min Rain = 0
KJTS 162305Z 00015G22KT 14/06 A2997 RMK A01 T01350064  RH  063%=      5-min Rain = 0
KJTS 162310Z 36015G21KT 13/06 A2997 RMK A01 T01320060  RH  063%=      5-min Rain = 0
KJTS 162315Z 35016KT 13/06 A2998 RMK A01 T01320058  RH  062%=      5-min Rain = 0
KJTS 162320Z 01015G20KT 13/06 A2998 RMK A01 T01320059  RH  063%=      5-min Rain = 0
KJTS 162325Z 01015G22KT 13/06 A2998 RMK A01 T01290062  RH  065%=      5-min Rain = 0
KJTS 162330Z 01015G20KT 13/06 A2998 RMK A01 T01280060  RH  065%=      5-min Rain = 0
KJTS 162335Z 36013G18KT 13/06 A2998 RMK A01 T01300061  RH  065%=      5-min Rain = 0
KJTS 162340Z 36013G19KT 13/06 A2999 RMK A01 T01310059  RH  063%=      5-min Rain = 0
KJTS 162345Z 00015KT 13/06 A2999 RMK A01 T01290059  RH  064%=      5-min Rain = 0
KJTS 162350Z 01014G19KT 13/06 A2999 RMK A01 T01280063  RH  066%=      5-min Rain = 0
KJTS 162355Z 01013G19KT 13/06 A2999 RMK A01 T01270063  RH  067%=      5-min Rain = 0
KJTS 170000Z 01012G18KT 13/06 A30 RMK A01 T01270063  RH  066%=      5-min Rain = 0
KJTS 170005Z 00015G20KT 13/06 A30 RMK A01 T01260059  RH  065%=      5-min Rain = 0
KJTS 170010Z 36015G21KT 13/06 A30 RMK A01 T01260056  RH  064%=      5-min Rain = 0
KJTS 170015Z 00015KT 13/05 A30 RMK A01 T01250054  RH  063%=      5-min Rain = 0
KJTS 170020Z 36014KT 13/05 A30 RMK A01 T01250052  RH  063%=      5-min Rain = 0
KJTS 170025Z 00012KT 13/05 A30 RMK A01 T01250054  RH  064%=      5-min Rain = 0
KJTS 170030Z 01013G19KT 12/06 A3001 RMK A01 T01240057  RH  065%=      5-min Rain = 0
KJTS 170035Z 01014G19KT 12/06 A3001 RMK A01 T01230056  RH  065%=      5-min Rain = 0
KJTS 170040Z 00015KT 12/05 A3001 RMK A01 T01220051  RH  063%=      5-min Rain = 0
KJTS 170045Z 00014G19KT 12/05 A3001 RMK A01 T01210049  RH  063%=      5-min Rain = 0
KJTS 170050Z 36013G20KT 12/05 A3001 RMK A01 T01200048  RH  063%=      5-min Rain = 0
KJTS 170055Z 00014G20KT 12/05 A3002 RMK A01 T01190049  RH  063%=      5-min Rain = 0
KJTS 170100Z 01015G21KT 12/05 A3002 RMK A01 T01180053  RH  066%=      5-min Rain = 0
KJTS 170105Z 01015G20KT 12/05 A3003 RMK A01 T01160054  RH  067%=      5-min Rain = 0
KJTS 170110Z 01013G18KT 12/06 A3002 RMK A01 T01150055  RH  068%=      5-min Rain = 0
KJTS 170115Z 01014G19KT 11/06 A3003 RMK A01 T01140056  RH  069%=      5-min Rain = 0
KJTS 170120Z 01013G20KT 11/06 A3003 RMK A01 T01130056  RH  069%=      5-min Rain = 0
KJTS 170125Z 01017G22KT 11/05 A3003 RMK A01 T01120052  RH  068%=      5-min Rain = 0
KJTS 170130Z 01017G24KT 11/05 A3003 RMK A01 T01100048  RH  067%=      5-min Rain = 0
KJTS 170135Z 00016KT 11/05 A3004 RMK A01 T01090048  RH  068%=      5-min Rain = 0
KJTS 170140Z 01014G19KT 11/05 A3004 RMK A01 T01070050  RH  069%=      5-min Rain = 0
KJTS 170145Z 01015G23KT 11/05 A3005 RMK A01 T01070050  RH  070%=      5-min Rain = 0
KJTS 170150Z 01015G21KT 11/05 A3005 RMK A01 T01050050  RH  070%=      5-min Rain = 0
KJTS 170155Z 00016G21KT 10/05 A3006 RMK A01 T01040049  RH  070%=      5-min Rain = 0
KJTS 170200Z 00019G25KT 10/05 A3006 RMK A01 T01020045  RH  069%=      5-min Rain = 0
KJTS 170205Z 01016G24KT 10/04 A3006 RMK A01 T00990043  RH  069%=      5-min Rain = 0
KJTS 170210Z 01017G22KT 10/04 A3007 RMK A01 T00980042  RH  070%=      5-min Rain = 0
KJTS 170215Z 01014G20KT 10/04 A3007 RMK A01 T00960042  RH  071%=      5-min Rain = 0
KJTS 170220Z 01014G22KT 10/04 A3007 RMK A01 T00950043  RH  072%=      5-min Rain = 0
KJTS 170225Z 36016KT 09/04 A3007 RMK A01 T00940042  RH  072%=      5-min Rain = 0
KJTS 170230Z 36015G21KT 09/04 A3008 RMK A01 T00920041  RH  072%=      5-min Rain = 0
KJTS 170235Z 00016G22KT 09/04 A3008 RMK A01 T00900039  RH  072%=      5-min Rain = 0
KJTS 170240Z 00015KT 09/04 A3009 RMK A01 T00900039  RH  072%=      5-min Rain = 0
KJTS 170245Z 00015G21KT 09/04 A301 RMK A01 T00890038  RH  072%=      5-min Rain = 0
KJTS 170250Z 00013G19KT 09/04 A301 RMK A01 T00880039  RH  072%=      5-min Rain = 0
KJTS 170255Z 01016G22KT 09/04 A301 RMK A01 T00880039  RH  073%=      5-min Rain = 0
KJTS 170300Z 01015G23KT 09/04 A301 RMK A01 T00870040  RH  074%=      5-min Rain = 0
KJTS 170305Z 01015G21KT 09/04 A301 RMK A01 T00860039  RH  074%=      5-min Rain = 0
KJTS 170310Z 00016G21KT 09/04 A301 RMK A01 T00850038  RH  074%=      5-min Rain = 0
KJTS 170315Z 01018G25KT 08/04 A301 RMK A01 T00840036  RH  073%=      5-min Rain = 0
KJTS 170320Z 01018G23KT 08/04 A301 RMK A01 T00840035  RH  073%=      5-min Rain = 0
KJTS 170325Z 01016G22KT 08/04 A301 RMK A01 T00830035  RH  074%=      5-min Rain = 0
KJTS 170330Z 01016G21KT 08/04 A301 RMK A01 T00820035  RH  074%=      5-min Rain = 0
KJTS 170335Z 01014G22KT 08/04 A3011 RMK A01 T00810036  RH  075%=      5-min Rain = 0
KJTS 170340Z 00015G20KT 08/04 A3011 RMK A01 T00810036  RH  075%=      5-min Rain = 0
KJTS 170345Z 01016G22KT 08/04 A3011 RMK A01 T00800037  RH  076%=      5-min Rain = 0
KJTS 170350Z 01015G22KT 08/04 A3011 RMK A01 T00790038  RH  077%=      5-min Rain = 0
KJTS 170355Z 01014G19KT 08/04 A3011 RMK A01 T00780038  RH  077%=      5-min Rain = 0
KJTS 170400Z 01015G20KT 08/04 A3012 RMK A01 T00780039  RH  078%=      5-min Rain = 0
KJTS 170405Z 01017G24KT 08/04 A3012 RMK A01 T00780038  RH  077%=      5-min Rain = 0
KJTS 170410Z 01015G23KT 08/04 A3012 RMK A01 T00780038  RH  077%=      5-min Rain = 0
KJTS 170415Z 01012G17KT 08/04 A3013 RMK A01 T00770038  RH  078%=      5-min Rain = 0
KJTS 170420Z 02013G19KT 08/04 A3013 RMK A01 T00770038  RH  078%=      5-min Rain = 0
KJTS 170425Z 01013G20KT 08/04 A3013 RMK A01 T00770037  RH  077%=      5-min Rain = 0
KJTS 170430Z 01011G17KT 08/04 A3013 RMK A01 T00770038  RH  078%=      5-min Rain = 0
KJTS 170435Z 01012G18KT 08/04 A3013 RMK A01 T00770037  RH  077%=      5-min Rain = 0
KJTS 170440Z 01011G17KT 08/04 A3014 RMK A01 T00770036  RH  077%=      5-min Rain = 0
KJTS 170445Z 02010G15KT 08/04 A3014 RMK A01 T00760036  RH  077%=      5-min Rain = 0
KJTS 170450Z 01009G14KT 08/04 A3014 RMK A01 T00760036  RH  077%=      5-min Rain = 0
KJTS 170455Z 02009G15KT 08/04 A3014 RMK A01 T00760035  RH  077%=      5-min Rain = 0

Page generated in 0.0087 seconds.